Cynthiana, Ohio
Current Conditions -  °F | °C
As of 1:14 AM on Monday 26 Jan 2015 (Local Time) from KRZT Reporting Station
Unknown Precip Unknown Precip  
Wind Chill: 24°   Ceiling: 300
Heat Index: 32°   Visibility: 2.5mi
Dew Point: 32°   Wind: 10mph
Humidity: 100%   Direction: 10°N
Pressure: 29.7"   Gusts: NA
Location:  39.17°N, 83.35°W
Report Text: KRZT 260614Z AUTO 01009KT 2 1/2SM UP BKN003 OVC007 00/00 A2970 RMK AO2
Loading
Personal Weather Stations






























Interactive Weather Map New forecast layout! Learn more

10-Day Weather Forecast

Advertisements
Track Severe Weather on mobile